Time;durP1;ratioP1;P1;durP2;ratioP2;P2;SDS_P1;SDS_P2;PMS_P1;PMS_P2;Temp;Humidity;BMP_temperature;BMP_pressure;BME280_temperature;BME280_humidity;BME280_pressure;Samples;Min_cycle;Max_cycle;Signal;HPM_P1;HPM_P2
2024/04/15 00:01:43;;;;;;;7.03;3.05;;;;;;;;;;5565086;25;20025;-62
2024/04/15 00:04:09;;;;;;;7.95;2.80;;;;;;;;;;5565111;25;20029;-62
2024/04/15 00:06:37;;;;;;;5.35;2.58;;;;;;;;;;5568697;25;20028;-62
2024/04/15 00:09:05;;;;;;;5.73;2.70;;;;;;;;;;5557404;25;20029;-61
2024/04/15 00:11:34;;;;;;;5.75;2.38;;;;;;;;;;5557762;25;20034;-62
2024/04/15 00:14:00;;;;;;;6.93;3.03;;;;;;;;;;5579756;25;20024;-62
2024/04/15 00:16:31;;;;;;;8.68;2.97;;;;;;;;;;5602803;25;20390;-62
2024/04/15 00:18:57;;;;;;;6.15;2.50;;;;;;;;;;5597295;25;20037;-62
2024/04/15 00:21:26;;;;;;;7.07;3.25;;;;;;;;;;5593333;25;20027;-62
2024/04/15 00:23:52;;;;;;;6.33;3.20;;;;;;;;;;5588232;25;20485;-62
2024/04/15 00:26:21;;;;;;;4.85;2.83;;;;;;;;;;5570418;25;20032;-62
2024/04/15 00:28:47;;;;;;;6.13;3.23;;;;;;;;;;5562297;25;20506;-61
2024/04/15 00:31:15;;;;;;;5.88;3.05;;;;;;;;;;5552378;25;20033;-62
2024/04/15 00:33:46;;;;;;;6.65;3.38;;;;;;;;;;5563287;25;20021;-62
2024/04/15 00:36:14;;;;;;;8.10;3.47;;;;;;;;;;5557534;25;20044;-62
2024/04/15 00:38:40;;;;;;;7.68;3.60;;;;;;;;;;5570613;25;20028;-61
2024/04/15 00:41:09;;;;;;;7.35;3.00;;;;;;;;;;5575903;25;20027;-61
2024/04/15 00:43:35;;;;;;;8.27;3.60;;;;;;;;;;5602577;25;20024;-62
2024/04/15 00:46:04;;;;;;;7.88;3.72;;;;;;;;;;5586481;25;20028;-61
2024/04/15 00:48:31;;;;;;;5.73;3.73;;;;;;;;;;5599871;25;20470;-61
2024/04/15 00:51:03;;;;;;;5.70;3.40;;;;;;;;;;5560664;25;20044;-62
2024/04/15 00:53:29;;;;;;;6.70;3.45;;;;;;;;;;5580885;25;20025;-61
2024/04/15 00:55:59;;;;;;;6.25;3.75;;;;;;;;;;5553632;25;20482;-61
2024/04/15 00:58:25;;;;;;;6.57;3.50;;;;;;;;;;5574989;25;20097;-62
2024/04/15 01:00:55;;;;;;;7.32;3.88;;;;;;;;;;5577641;25;20478;-61
2024/04/15 01:03:22;;;;;;;6.40;3.65;;;;;;;;;;5573214;25;20025;-61
2024/04/15 01:05:51;;;;;;;7.88;3.90;;;;;;;;;;5580935;25;20043;-62
2024/04/15 01:08:20;;;;;;;9.07;4.50;;;;;;;;;;5571502;25;20028;-61
2024/04/15 01:10:48;;;;;;;8.23;4.60;;;;;;;;;;5574660;25;20020;-61
2024/04/15 01:13:14;;;;;;;8.83;4.03;;;;;;;;;;5581772;25;20375;-61
2024/04/15 01:15:43;;;;;;;8.55;5.15;;;;;;;;;;5583424;25;20382;-61
2024/04/15 01:18:09;;;;;;;11.20;4.70;;;;;;;;;;5601418;25;20037;-61
2024/04/15 01:20:38;;;;;;;7.05;4.03;;;;;;;;;;5583540;25;20498;-61
2024/04/15 01:23:05;;;;;;;6.50;4.53;;;;;;;;;;5579882;25;20031;-61
2024/04/15 01:25:36;;;;;;;7.57;4.90;;;;;;;;;;5563996;25;20373;-61
2024/04/15 01:28:03;;;;;;;6.85;4.82;;;;;;;;;;5564406;25;20485;-61
2024/04/15 01:30:32;;;;;;;7.80;4.90;;;;;;;;;;5565026;25;20028;-61
2024/04/15 01:32:58;;;;;;;11.77;4.78;;;;;;;;;;5579919;25;20033;-63
2024/04/15 01:35:27;;;;;;;8.43;4.70;;;;;;;;;;5575832;25;20019;-61
2024/04/15 01:37:53;;;;;;;8.88;5.10;;;;;;;;;;5587852;25;20021;-61
2024/04/15 01:40:21;;;;;;;7.85;4.97;;;;;;;;;;5573128;25;20025;-60
2024/04/15 01:42:50;;;;;;;7.70;4.70;;;;;;;;;;5570771;25;20043;-62
2024/04/15 01:45:19;;;;;;;7.47;5.05;;;;;;;;;;5577603;25;20024;-62
2024/04/15 01:47:46;;;;;;;10.73;5.38;;;;;;;;;;5576375;25;20032;-61
2024/04/15 01:50:16;;;;;;;10.60;5.63;;;;;;;;;;5578281;25;20021;-61
2024/04/15 01:52:42;;;;;;;9.60;5.78;;;;;;;;;;5590230;25;20036;-60
2024/04/15 01:55:10;;;;;;;9.15;5.80;;;;;;;;;;5600823;25;20028;-61
2024/04/15 01:57:37;;;;;;;8.63;6.00;;;;;;;;;;5602181;25;20028;-61
2024/04/15 02:00:09;;;;;;;9.18;6.35;;;;;;;;;;5600661;25;20040;-60
2024/04/15 02:02:35;;;;;;;7.35;5.30;;;;;;;;;;5586529;25;20036;-61
2024/04/15 02:05:07;;;;;;;9.15;6.47;;;;;;;;;;5576200;25;20072;-60
2024/04/15 02:07:34;;;;;;;10.02;6.57;;;;;;;;;;5563655;25;20041;-61
2024/04/15 02:10:03;;;;;;;10.15;7.80;;;;;;;;;;5547536;25;20486;-61
2024/04/15 02:12:29;;;;;;;9.07;7.72;;;;;;;;;;5563880;25;20482;-61
2024/04/15 02:14:57;;;;;;;9.80;7.43;;;;;;;;;;5555856;25;20029;-61
2024/04/15 02:17:26;;;;;;;7.28;6.50;;;;;;;;;;5578996;25;20484;-61
2024/04/15 02:19:55;;;;;;;8.47;6.77;;;;;;;;;;5562140;25;20034;-61
2024/04/15 02:22:21;;;;;;;7.95;6.07;;;;;;;;;;5564926;25;20037;-60
2024/04/15 02:24:50;;;;;;;9.43;6.65;;;;;;;;;;5547113;25;20032;-61
2024/04/15 02:27:16;;;;;;;9.70;6.45;;;;;;;;;;5577176;25;20024;-61
2024/04/15 02:29:44;;;;;;;7.68;6.03;;;;;;;;;;5557168;25;20029;-60
2024/04/15 02:32:11;;;;;;;8.15;5.65;;;;;;;;;;5563168;25;20025;-60
2024/04/15 02:34:44;;;;;;;9.35;6.32;;;;;;;;;;5546735;25;20030;-60
2024/04/15 02:37:10;;;;;;;8.48;6.32;;;;;;;;;;5574086;25;20040;-60
2024/04/15 02:39:39;;;;;;;10.73;6.38;;;;;;;;;;5569166;25;20375;-61
2024/04/15 02:42:05;;;;;;;12.13;6.57;;;;;;;;;;5579776;25;20020;-61
2024/04/15 02:44:34;;;;;;;9.32;6.40;;;;;;;;;;5566014;25;20029;-60
2024/04/15 02:47:00;;;;;;;8.47;6.20;;;;;;;;;;5600897;25;20024;-60
2024/04/15 02:49:28;;;;;;;9.02;6.28;;;;;;;;;;5599637;25;20384;-60
2024/04/15 02:51:57;;;;;;;11.07;6.75;;;;;;;;;;5587631;25;20028;-61
2024/04/15 02:54:26;;;;;;;10.65;7.32;;;;;;;;;;5569956;25;20401;-61
2024/04/15 02:56:52;;;;;;;11.45;7.07;;;;;;;;;;5573156;25;20709;-60
2024/04/15 02:59:21;;;;;;;10.18;7.43;;;;;;;;;;5567509;25;20028;-61
2024/04/15 03:01:47;;;;;;;8.90;7.60;;;;;;;;;;5574216;25;20466;-60
2024/04/15 03:04:16;;;;;;;10.32;7.30;;;;;;;;;;5571461;25;20032;-61
2024/04/15 03:06:42;;;;;;;10.63;7.75;;;;;;;;;;5562822;25;20038;-61
2024/04/15 03:09:14;;;;;;;11.27;7.97;;;;;;;;;;5561639;25;20028;-69
2024/04/15 03:11:40;;;;;;;11.20;8.10;;;;;;;;;;5562253;25;20024;-61
2024/04/15 03:14:09;;;;;;;12.18;7.90;;;;;;;;;;5566296;25;20024;-61
2024/04/15 03:16:35;;;;;;;13.35;8.77;;;;;;;;;;5571626;25;20029;-61
2024/04/15 03:19:04;;;;;;;12.32;9.60;;;;;;;;;;5578681;25;20392;-61
2024/04/15 03:21:30;;;;;;;10.48;9.02;;;;;;;;;;5572263;25;20037;-60
2024/04/15 03:23:59;;;;;;;14.55;9.43;;;;;;;;;;5582101;25;20028;-61
2024/04/15 03:26:28;;;;;;;12.88;9.65;;;;;;;;;;5582800;25;20367;-61
2024/04/15 03:28:57;;;;;;;12.40;9.18;;;;;;;;;;5582307;25;20036;-61
2024/04/15 03:31:23;;;;;;;22.47;10.60;;;;;;;;;;5578153;25;20029;-61
2024/04/15 03:33:52;;;;;;;13.90;9.80;;;;;;;;;;5572923;25;20024;-60
2024/04/15 03:36:18;;;;;;;11.38;9.40;;;;;;;;;;5578131;25;20466;-61
2024/04/15 03:38:47;;;;;;;14.93;10.48;;;;;;;;;;5577752;25;20028;-61
2024/04/15 03:41:15;;;;;;;14.45;9.60;;;;;;;;;;5581822;25;20474;-64
2024/04/15 03:43:47;;;;;;;14.35;9.52;;;;;;;;;;5588591;25;20376;-61
2024/04/15 03:46:13;;;;;;;14.00;9.85;;;;;;;;;;5568451;25;20372;-61
2024/04/15 03:48:41;;;;;;;13.27;9.48;;;;;;;;;;5579205;25;20040;-61
2024/04/15 03:51:07;;;;;;;13.18;9.48;;;;;;;;;;5577950;25;20028;-61
2024/04/15 03:53:36;;;;;;;16.88;10.80;;;;;;;;;;5579221;25;20027;-60
2024/04/15 03:56:03;;;;;;;14.83;11.10;;;;;;;;;;5581289;25;20352;-61
2024/04/15 03:58:31;;;;;;;15.30;9.77;;;;;;;;;;5579574;25;20033;-61
2024/04/15 04:01:01;;;;;;;13.95;10.32;;;;;;;;;;5577418;25;20028;-61
2024/04/15 04:03:30;;;;;;;17.98;11.10;;;;;;;;;;5569224;25;20025;-62
2024/04/15 04:05:56;;;;;;;15.77;10.23;;;;;;;;;;5565361;25;20056;-60
2024/04/15 04:08:25;;;;;;;12.93;10.02;;;;;;;;;;5568522;25;20037;-60
2024/04/15 04:10:51;;;;;;;12.90;9.73;;;;;;;;;;5565176;25;20024;-61
2024/04/15 04:13:20;;;;;;;13.20;9.88;;;;;;;;;;5564669;25;20526;-60
2024/04/15 04:15:46;;;;;;;13.90;9.85;;;;;;;;;;5572714;25;20464;-60
2024/04/15 04:18:17;;;;;;;16.65;10.93;;;;;;;;;;5586626;25;20039;-61
2024/04/15 04:20:44;;;;;;;17.23;11.57;;;;;;;;;;5581116;25;20037;-60
2024/04/15 04:23:12;;;;;;;12.32;10.15;;;;;;;;;;5595110;25;20020;-60
2024/04/15 04:25:38;;;;;;;16.67;10.60;;;;;;;;;;5581984;25;20025;-60
2024/04/15 04:28:07;;;;;;;18.02;12.15;;;;;;;;;;5571266;25;20032;-60
2024/04/15 04:30:34;;;;;;;15.77;11.77;;;;;;;;;;5569519;25;20021;-60
2024/04/15 04:33:03;;;;;;;17.23;11.20;;;;;;;;;;5581078;25;20038;-61
2024/04/15 04:35:36;;;;;;;15.52;11.32;;;;;;;;;;5582142;25;20029;-60
2024/04/15 04:38:06;;;;;;;18.98;12.50;;;;;;;;;;5577011;25;20023;-60
2024/04/15 04:40:35;;;;;;;15.10;11.55;;;;;;;;;;5569852;25;20025;-60
2024/04/15 04:43:01;;;;;;;14.82;11.20;;;;;;;;;;5564960;25;20486;-60
2024/04/15 04:45:30;;;;;;;18.17;13.00;;;;;;;;;;5563967;25;20486;-60
2024/04/15 04:47:56;;;;;;;16.33;11.68;;;;;;;;;;5567647;25;20044;-61
2024/04/15 04:50:25;;;;;;;17.55;11.90;;;;;;;;;;5593160;25;20032;-60
2024/04/15 04:52:54;;;;;;;15.63;12.30;;;;;;;;;;5602288;25;20482;-60
2024/04/15 04:55:23;;;;;;;16.63;12.48;;;;;;;;;;5602130;25;20040;-60
2024/04/15 04:57:49;;;;;;;20.93;13.83;;;;;;;;;;5587335;25;20024;-60
2024/04/15 05:00:18;;;;;;;20.35;13.15;;;;;;;;;;5563160;25;20025;-61
2024/04/15 05:02:45;;;;;;;18.10;13.47;;;;;;;;;;5571847;25;20036;-60
2024/04/15 05:05:13;;;;;;;17.48;13.32;;;;;;;;;;5582050;25;20036;-60
2024/04/15 05:07:39;;;;;;;17.70;12.07;;;;;;;;;;5573835;25;20023;-60
2024/04/15 05:10:11;;;;;;;17.42;11.73;;;;;;;;;;5577111;25;20031;-60
2024/04/15 05:12:37;;;;;;;16.73;12.30;;;;;;;;;;5582285;25;20040;-60
2024/04/15 05:15:07;;;;;;;16.52;11.35;;;;;;;;;;5585141;25;20473;-62
2024/04/15 05:17:34;;;;;;;18.58;12.82;;;;;;;;;;5574472;25;20039;-60
2024/04/15 05:20:02;;;;;;;16.08;11.98;;;;;;;;;;5593435;25;20028;-60
2024/04/15 05:22:28;;;;;;;17.67;12.35;;;;;;;;;;5568755;25;20493;-60
2024/04/15 05:24:57;;;;;;;16.48;12.65;;;;;;;;;;5582695;25;20032;-59
2024/04/15 05:27:26;;;;;;;19.50;13.43;;;;;;;;;;5587233;25;20023;-60
2024/04/15 05:29:55;;;;;;;20.85;13.95;;;;;;;;;;5575405;25;20027;-59
2024/04/15 05:32:21;;;;;;;15.95;12.75;;;;;;;;;;5565058;25;20025;-60
2024/04/15 05:34:50;;;;;;;16.70;12.50;;;;;;;;;;5568505;25;20036;-59
2024/04/15 05:37:16;;;;;;;13.45;11.13;;;;;;;;;;5567979;25;20044;-59
2024/04/15 05:39:44;;;;;;;17.65;11.48;;;;;;;;;;5578526;25;20474;-59
2024/04/15 05:42:11;;;;;;;15.68;10.98;;;;;;;;;;5578723;25;20024;-59
2024/04/15 05:44:42;;;;;;;16.95;11.18;;;;;;;;;;5576132;25;20065;-58
2024/04/15 05:47:09;;;;;;;13.88;10.48;;;;;;;;;;5566643;25;20025;-58
2024/04/15 05:49:39;;;;;;;16.02;11.25;;;;;;;;;;5567183;25;20033;-58
2024/04/15 05:52:05;;;;;;;12.52;10.07;;;;;;;;;;5597620;25;20028;-58
2024/04/15 05:54:33;;;;;;;12.35;9.77;;;;;;;;;;5574556;25;20481;-58
2024/04/15 05:57:09;;;;;;;14.00;10.10;;;;;;;;;;5577636;25;20477;-59
2024/04/15 05:59:38;;;;;;;13.48;9.57;;;;;;;;;;5576082;25;20040;-59
2024/04/15 06:02:07;;;;;;;14.43;9.82;;;;;;;;;;5569547;25;20044;-59
2024/04/15 06:04:35;;;;;;;12.93;9.27;;;;;;;;;;5571268;25;20118;-58
2024/04/15 06:07:02;;;;;;;14.10;8.87;;;;;;;;;;5572776;25;20397;-59
2024/04/15 06:09:34;;;;;;;12.10;9.38;;;;;;;;;;5565656;25;20025;-59
2024/04/15 06:12:00;;;;;;;11.73;9.48;;;;;;;;;;5569813;25;20024;-59
2024/04/15 06:14:28;;;;;;;13.23;9.10;;;;;;;;;;5575432;25;20037;-60
2024/04/15 06:16:55;;;;;;;9.15;8.18;;;;;;;;;;5574677;25;20463;-59
2024/04/15 06:19:26;;;;;;;14.85;8.30;;;;;;;;;;5572915;25;20071;-59
2024/04/15 06:21:52;;;;;;;11.90;7.53;;;;;;;;;;5579720;25;20374;-59
2024/04/15 06:24:21;;;;;;;10.90;7.18;;;;;;;;;;5595894;25;20048;-59
2024/04/15 06:26:47;;;;;;;11.47;7.37;;;;;;;;;;5594601;25;20469;-59
2024/04/15 06:29:17;;;;;;;9.63;6.93;;;;;;;;;;5578850;25;20404;-59
2024/04/15 06:31:43;;;;;;;11.10;6.38;;;;;;;;;;5587008;25;20463;-59
2024/04/15 06:34:12;;;;;;;10.77;6.53;;;;;;;;;;5576467;25;20025;-59
2024/04/15 06:36:41;;;;;;;10.52;5.97;;;;;;;;;;5576906;25;20021;-59
2024/04/15 06:39:10;;;;;;;10.10;5.65;;;;;;;;;;5568959;25;20027;-60
2024/04/15 06:41:36;;;;;;;7.53;4.75;;;;;;;;;;5579710;25;20490;-59
2024/04/15 06:44:05;;;;;;;9.93;5.30;;;;;;;;;;5586644;25;20031;-60
2024/04/15 06:46:31;;;;;;;10.93;5.22;;;;;;;;;;5587090;25;20036;-60
2024/04/15 06:49:00;;;;;;;8.98;4.72;;;;;;;;;;5593481;25;20020;-59
2024/04/15 06:51:27;;;;;;;10.32;4.68;;;;;;;;;;5579117;25;20021;-60
2024/04/15 06:53:58;;;;;;;10.55;4.65;;;;;;;;;;5569280;25;20021;-59
2024/04/15 06:56:24;;;;;;;9.80;4.90;;;;;;;;;;5586131;25;20473;-60
2024/04/15 06:58:53;;;;;;;10.43;4.90;;;;;;;;;;5609203;25;20373;-59
2024/04/15 07:01:19;;;;;;;9.88;4.63;;;;;;;;;;5580302;25;20020;-60
2024/04/15 07:03:48;;;;;;;9.75;4.82;;;;;;;;;;5595364;25;20055;-60
2024/04/15 07:06:14;;;;;;;9.23;4.07;;;;;;;;;;5587066;25;20035;-59
2024/04/15 07:08:43;;;;;;;7.25;4.25;;;;;;;;;;5595005;25;20048;-59
2024/04/15 07:11:12;;;;;;;9.13;4.32;;;;;;;;;;5564564;25;20024;-59
2024/04/15 07:13:40;;;;;;;7.85;4.53;;;;;;;;;;5573562;25;20028;-59
2024/04/15 07:16:08;;;;;;;11.38;4.38;;;;;;;;;;5565301;25;20027;-59
2024/04/15 07:18:37;;;;;;;10.55;4.60;;;;;;;;;;5583464;25;20024;-59
2024/04/15 07:21:03;;;;;;;10.70;4.60;;;;;;;;;;5580370;25;20287;-59
2024/04/15 07:23:32;;;;;;;8.98;4.30;;;;;;;;;;5573244;25;20381;-60
2024/04/15 07:25:58;;;;;;;9.35;3.85;;;;;;;;;;5572122;25;20024;-58
2024/04/15 07:28:29;;;;;;;7.38;4.28;;;;;;;;;;5600014;25;20024;-59
2024/04/15 07:30:56;;;;;;;6.93;4.53;;;;;;;;;;5559864;25;20000;-59
2024/04/15 07:33:24;;;;;;;8.10;3.83;;;;;;;;;;5589796;25;20032;-60
2024/04/15 07:35:54;;;;;;;7.77;4.40;;;;;;;;;;5578810;25;20040;-59
2024/04/15 07:38:23;;;;;;;7.60;4.57;;;;;;;;;;5592790;25;20028;-59
2024/04/15 07:40:49;;;;;;;8.45;4.38;;;;;;;;;;5596222;25;20513;-59
2024/04/15 07:43:18;;;;;;;9.77;4.60;;;;;;;;;;5578871;25;20032;-59
2024/04/15 07:45:46;;;;;;;7.17;3.97;;;;;;;;;;5580692;25;20027;-59
2024/04/15 07:48:16;;;;;;;7.37;3.87;;;;;;;;;;5583821;25;20607;-60
2024/04/15 07:50:42;;;;;;;7.78;4.20;;;;;;;;;;5584370;25;20024;-59
2024/04/15 07:53:10;;;;;;;11.63;4.40;;;;;;;;;;5588822;25;20474;-59
2024/04/15 07:55:37;;;;;;;14.40;4.70;;;;;;;;;;5586035;25;20028;-59
2024/04/15 07:58:06;;;;;;;10.57;4.60;;;;;;;;;;5584891;25;20036;-59
2024/04/15 08:00:32;;;;;;;8.77;3.90;;;;;;;;;;5573707;25;20029;-61
2024/04/15 08:03:03;;;;;;;10.10;4.40;;;;;;;;;;5581871;25;20386;-60
2024/04/15 08:05:29;;;;;;;11.48;4.20;;;;;;;;;;5573049;25;20037;-59
2024/04/15 08:07:58;;;;;;;7.82;4.57;;;;;;;;;;5591712;25;20548;-59
2024/04/15 08:10:24;;;;;;;7.65;3.92;;;;;;;;;;5590700;25;20383;-60
2024/04/15 08:12:53;;;;;;;7.72;3.90;;;;;;;;;;5562189;25;20157;-59
2024/04/15 08:15:19;;;;;;;9.07;3.53;;;;;;;;;;5583050;25;20024;-60
2024/04/15 08:17:48;;;;;;;10.63;3.92;;;;;;;;;;5583982;25;20028;-59
2024/04/15 08:20:17;;;;;;;10.73;4.00;;;;;;;;;;5581515;25;20758;-59
2024/04/15 08:22:49;;;;;;;9.13;3.33;;;;;;;;;;5578307;25;20041;-61
2024/04/15 08:25:18;;;;;;;7.22;3.20;;;;;;;;;;5595567;25;20380;-60
2024/04/15 08:27:44;;;;;;;8.40;3.30;;;;;;;;;;5572827;25;20028;-59
2024/04/15 08:30:13;;;;;;;6.53;2.95;;;;;;;;;;5603214;25;20027;-60
2024/04/15 08:32:39;;;;;;;8.07;2.90;;;;;;;;;;5574042;25;20028;-59
2024/04/15 08:35:08;;;;;;;7.85;3.15;;;;;;;;;;5578399;25;20454;-59
2024/04/15 08:37:37;;;;;;;6.70;3.85;;;;;;;;;;5579294;25;20033;-59
2024/04/15 08:40:07;;;;;;;9.75;3.17;;;;;;;;;;5601483;25;20023;-60
2024/04/15 08:42:32;;;;;;;;;;;;;;;;;;5618591;25;20028;-59
2024/04/15 08:45:02;;;;;;;6.90;2.88;;;;;;;;;;5584014;25;19929;-60
2024/04/15 08:47:29;;;;;;;5.50;3.00;;;;;;;;;;5611703;25;20353;-59
2024/04/15 08:49:58;;;;;;;7.18;2.83;;;;;;;;;;5574201;25;20147;-60
2024/04/15 08:52:24;;;;;;;8.45;3.17;;;;;;;;;;5574222;25;20027;-59
2024/04/15 08:54:56;;;;;;;7.88;2.90;;;;;;;;;;5581248;25;20043;-59
2024/04/15 08:57:23;;;;;;;6.30;2.70;;;;;;;;;;5576321;25;20048;-60
2024/04/15 08:59:52;;;;;;;6.25;2.63;;;;;;;;;;5571033;25;20025;-60
2024/04/15 09:02:18;;;;;;;8.40;2.58;;;;;;;;;;5574721;25;20032;-59
2024/04/15 09:04:47;;;;;;;7.53;3.15;;;;;;;;;;5573811;25;20386;-59
2024/04/15 09:07:13;;;;;;;7.15;3.00;;;;;;;;;;5587057;25;20044;-60
2024/04/15 09:09:42;;;;;;;5.45;2.35;;;;;;;;;;5616599;25;20028;-60
2024/04/15 09:12:11;;;;;;;7.55;2.67;;;;;;;;;;5584889;25;20028;-60
2024/04/15 09:14:40;;;;;;;8.30;2.78;;;;;;;;;;5610564;25;20027;-59
2024/04/15 09:17:06;;;;;;;8.25;2.20;;;;;;;;;;5590799;25;20024;-60
2024/04/15 09:19:35;;;;;;;8.25;2.65;;;;;;;;;;5592885;25;20495;-59
2024/04/15 09:22:01;;;;;;;5.53;2.08;;;;;;;;;;5583973;25;20028;-59
2024/04/15 09:24:30;;;;;;;8.75;2.50;;;;;;;;;;5599843;25;20021;-59
2024/04/15 09:26:56;;;;;;;6.70;2.25;;;;;;;;;;5576080;25;20032;-59
2024/04/15 09:29:27;;;;;;;4.72;2.22;;;;;;;;;;5573861;25;20036;-59
2024/04/15 09:31:55;;;;;;;5.65;2.03;;;;;;;;;;5572987;25;20033;-59
2024/04/15 09:34:24;;;;;;;6.68;1.80;;;;;;;;;;5580164;25;20374;-59
2024/04/15 09:36:50;;;;;;;5.88;1.77;;;;;;;;;;5627050;25;20370;-59
2024/04/15 09:39:19;;;;;;;6.13;1.95;;;;;;;;;;5597652;25;20028;-61
2024/04/15 09:41:46;;;;;;;5.38;1.92;;;;;;;;;;5567923;25;20036;-60
2024/04/15 09:44:16;;;;;;;6.28;2.00;;;;;;;;;;5576333;25;20469;-59
2024/04/15 09:46:45;;;;;;;5.40;1.80;;;;;;;;;;5577903;25;20020;-61
2024/04/15 09:49:15;;;;;;;5.03;2.00;;;;;;;;;;5577313;25;20364;-59
2024/04/15 09:51:42;;;;;;;8.40;2.10;;;;;;;;;;5604808;25;20023;-60
2024/04/15 09:54:11;;;;;;;7.88;2.30;;;;;;;;;;5604175;25;20028;-61
2024/04/15 09:56:41;;;;;;;4.90;1.80;;;;;;;;;;5593839;25;20360;-60
2024/04/15 09:59:10;;;;;;;4.85;1.98;;;;;;;;;;5579633;25;20035;-60
2024/04/15 10:01:38;;;;;;;5.20;1.45;;;;;;;;;;5582925;25;20720;-59
2024/04/15 10:04:15;;;;;;;7.03;2.28;;;;;;;;;;5578268;25;20395;-60
2024/04/15 10:06:43;;;;;;;8.48;2.15;;;;;;;;;;5576922;25;20028;-60
2024/04/15 10:09:12;;;;;;;4.78;1.92;;;;;;;;;;5572752;25;20024;-59
2024/04/15 10:11:38;;;;;;;5.68;2.05;;;;;;;;;;5591897;25;20102;-60
2024/04/15 10:14:07;;;;;;;4.63;2.40;;;;;;;;;;5575735;25;20033;-60
2024/04/15 10:16:34;;;;;;;7.55;2.30;;;;;;;;;;5600895;25;20035;-60
2024/04/15 10:19:03;;;;;;;5.20;2.00;;;;;;;;;;5582237;25;20069;-59
2024/04/15 10:21:32;;;;;;;5.30;2.10;;;;;;;;;;5584751;25;20040;-60
2024/04/15 10:24:00;;;;;;;4.57;2.03;;;;;;;;;;5596681;25;20760;-61
2024/04/15 10:26:27;;;;;;;9.20;2.10;;;;;;;;;;5616027;25;20715;-60
2024/04/15 10:29:11;;;;;;;5.93;1.90;;;;;;;;;;5583654;25;20032;-60
2024/04/15 10:31:39;;;;;;;5.68;2.20;;;;;;;;;;5569222;25;20581;-59
2024/04/15 10:34:08;;;;;;;5.78;2.08;;;;;;;;;;5590620;25;20036;-60
2024/04/15 10:36:42;;;;;;;26.88;3.25;;;;;;;;;;5590883;25;20031;-59
2024/04/15 10:39:17;;;;;;;5.43;2.00;;;;;;;;;;5594403;25;20029;-61
2024/04/15 10:41:43;;;;;;;5.72;2.05;;;;;;;;;;5574189;25;20044;-61
2024/04/15 10:44:12;;;;;;;7.28;1.70;;;;;;;;;;5567419;25;20031;-61
2024/04/15 10:46:40;;;;;;;5.35;1.70;;;;;;;;;;5590663;25;20027;-61
2024/04/15 10:49:09;;;;;;;4.43;1.73;;;;;;;;;;5567805;25;20037;-61
2024/04/15 10:51:38;;;;;;;4.57;1.83;;;;;;;;;;5569930;25;20028;-60
2024/04/15 10:54:07;;;;;;;5.90;1.80;;;;;;;;;;5584383;25;20045;-60
2024/04/15 10:56:33;;;;;;;5.25;1.70;;;;;;;;;;5573450;25;20033;-60
2024/04/15 10:59:02;;;;;;;6.55;2.25;;;;;;;;;;5574503;25;20107;-62
2024/04/15 11:01:28;;;;;;;7.82;2.22;;;;;;;;;;5572817;25;20040;-62
2024/04/15 11:03:57;;;;;;;7.43;2.00;;;;;;;;;;5565524;25;20381;-59
2024/04/15 11:06:23;;;;;;;3.67;1.75;;;;;;;;;;5594778;25;20027;-59
2024/04/15 11:08:54;;;;;;;6.05;2.20;;;;;;;;;;5583499;25;20028;-59
2024/04/15 11:11:20;;;;;;;3.85;1.60;;;;;;;;;;5585095;25;20031;-58
2024/04/15 11:13:49;;;;;;;5.30;2.15;;;;;;;;;;5581952;25;20032;-58
2024/04/15 11:16:15;;;;;;;5.10;1.90;;;;;;;;;;5578864;25;20930;-59
2024/04/15 11:18:44;;;;;;;4.30;1.65;;;;;;;;;;5588919;25;20035;-58
2024/04/15 11:21:10;;;;;;;6.57;1.50;;;;;;;;;;5578184;25;20037;-67
2024/04/15 11:23:39;;;;;;;4.95;1.95;;;;;;;;;;5577915;25;20044;-62
2024/04/15 11:26:08;;;;;;;7.95;1.73;;;;;;;;;;5581195;25;20063;-58
2024/04/15 11:28:37;;;;;;;5.30;1.67;;;;;;;;;;5570316;25;20041;-59
2024/04/15 11:31:03;;;;;;;6.20;2.03;;;;;;;;;;5579879;25;20040;-58
2024/04/15 11:33:32;;;;;;;4.57;1.90;;;;;;;;;;5576976;25;20036;-62
2024/04/15 11:35:58;;;;;;;4.53;1.42;;;;;;;;;;5568966;25;20033;-60
2024/04/15 11:38:27;;;;;;;6.03;1.63;;;;;;;;;;5576947;25;20024;-58
2024/04/15 11:40:53;;;;;;;6.25;1.92;;;;;;;;;;5585308;25;20024;-61
2024/04/15 11:43:25;;;;;;;5.72;2.05;;;;;;;;;;5579431;25;20507;-60
2024/04/15 11:45:52;;;;;;;5.22;1.65;;;;;;;;;;5578801;25;20378;-61
2024/04/15 11:48:20;;;;;;;6.20;2.10;;;;;;;;;;5583992;25;20106;-60
2024/04/15 11:50:48;;;;;;;6.45;1.92;;;;;;;;;;5585341;25;20276;-59
2024/04/15 11:53:17;;;;;;;4.93;1.50;;;;;;;;;;5588202;25;20024;-60
2024/04/15 11:55:43;;;;;;;4.25;1.48;;;;;;;;;;5574190;25;20021;-60
2024/04/15 11:58:12;;;;;;;12.35;1.65;;;;;;;;;;5570872;25;20036;-64
2024/04/15 12:00:41;;;;;;;7.75;1.55;;;;;;;;;;5584391;25;20385;-60
2024/04/15 12:03:10;;;;;;;8.20;2.15;;;;;;;;;;5566558;25;20360;-60
2024/04/15 12:05:36;;;;;;;4.63;1.92;;;;;;;;;;5582164;25;20025;-59
2024/04/15 12:08:05;;;;;;;5.28;1.80;;;;;;;;;;5576073;25;20029;-60
2024/04/15 12:10:31;;;;;;;5.97;1.83;;;;;;;;;;5597799;25;20035;-60
2024/04/15 12:13:00;;;;;;;5.00;1.80;;;;;;;;;;5603873;25;20454;-59
2024/04/15 12:15:26;;;;;;;6.38;1.50;;;;;;;;;;5585522;25;20369;-60
2024/04/15 12:17:57;;;;;;;7.25;1.60;;;;;;;;;;5583653;25;20024;-60
2024/04/15 12:20:24;;;;;;;8.75;2.00;;;;;;;;;;5571476;25;20029;-59
2024/04/15 12:22:53;;;;;;;6.53;1.60;;;;;;;;;;5574891;25;20025;-59
2024/04/15 12:25:19;;;;;;;10.93;1.77;;;;;;;;;;5590694;25;20035;-60
2024/04/15 12:27:47;;;;;;;5.18;1.40;;;;;;;;;;5599065;25;20036;-62
2024/04/15 12:30:14;;;;;;;5.75;1.58;;;;;;;;;;5580315;25;20021;-60
2024/04/15 12:32:42;;;;;;;6.90;1.50;;;;;;;;;;5572869;25;20032;-60
2024/04/15 12:35:11;;;;;;;7.82;1.55;;;;;;;;;;5572833;25;20044;-60
2024/04/15 12:37:40;;;;;;;4.75;1.58;;;;;;;;;;5568313;25;20036;-59
2024/04/15 12:40:07;;;;;;;8.10;1.65;;;;;;;;;;5572342;25;20036;-60
2024/04/15 12:42:36;;;;;;;6.43;1.67;;;;;;;;;;5579377;25;20036;-59
2024/04/15 12:45:11;;;;;;;5.75;1.88;;;;;;;;;;5581098;25;20024;-59
2024/04/15 12:47:40;;;;;;;6.47;1.40;;;;;;;;;;5567747;25;20370;-60
2024/04/15 12:50:07;;;;;;;4.15;1.80;;;;;;;;;;5563032;25;20033;-59
2024/04/15 12:52:41;;;;;;;5.32;1.75;;;;;;;;;;5570767;25;20028;-59
2024/04/15 12:55:07;;;;;;;5.07;1.73;;;;;;;;;;5564321;25;20039;-58
2024/04/15 12:57:36;;;;;;;5.50;1.30;;;;;;;;;;5572046;25;20028;-59
2024/04/15 13:00:04;;;;;;;7.10;1.60;;;;;;;;;;5572156;25;20033;-60
2024/04/15 13:02:36;;;;;;;4.38;1.63;;;;;;;;;;5538023;25;20587;-61
2024/04/15 13:05:02;;;;;;;14.80;2.05;;;;;;;;;;5533913;25;20032;-61
2024/04/15 13:07:34;;;;;;;4.90;1.40;;;;;;;;;;5534066;25;20033;-60
2024/04/15 13:10:03;;;;;;;4.43;1.60;;;;;;;;;;5533415;25;20107;-58
2024/04/15 13:12:32;;;;;;;;;;;;;;;;;;5529184;25;20037;-59
2024/04/15 13:14:58;;;;;;;6.32;1.30;;;;;;;;;;5533071;25;19951;-59
2024/04/15 13:17:27;;;;;;;6.03;1.40;;;;;;;;;;5531707;25;20029;-59
2024/04/15 13:19:53;;;;;;;7.37;1.80;;;;;;;;;;5532370;25;20037;-59
2024/04/15 13:22:22;;;;;;;8.32;1.60;;;;;;;;;;5542174;25;20506;-59
2024/04/15 13:24:48;;;;;;;7.03;1.50;;;;;;;;;;5537012;25;20030;-58
2024/04/15 13:27:19;;;;;;;4.00;1.50;;;;;;;;;;5531377;25;20029;-58
2024/04/15 13:29:45;;;;;;;3.65;1.42;;;;;;;;;;5528622;25;20033;-59
2024/04/15 13:32:16;;;;;;;4.43;1.70;;;;;;;;;;5522748;25;20500;-59
2024/04/15 13:34:42;;;;;;;4.82;1.40;;;;;;;;;;5531393;25;20048;-59
2024/04/15 13:37:13;;;;;;;5.25;1.35;;;;;;;;;;5536250;25;20029;-59
2024/04/15 13:39:39;;;;;;;4.20;1.48;;;;;;;;;;5534568;25;20025;-60
2024/04/15 13:42:08;;;;;;;6.78;1.50;;;;;;;;;;5530243;25;20053;-59
2024/04/15 13:44:37;;;;;;;4.40;1.50;;;;;;;;;;5533091;25;20379;-59
2024/04/15 13:47:06;;;;;;;3.40;1.20;;;;;;;;;;5528353;25;20016;-59
2024/04/15 13:49:32;;;;;;;7.38;1.75;;;;;;;;;;5526894;25;20567;-58
2024/04/15 13:52:03;;;;;;;6.20;1.60;;;;;;;;;;5530528;25;20001;-59
2024/04/15 13:54:29;;;;;;;4.15;1.20;;;;;;;;;;5538874;25;20036;-59
2024/04/15 13:56:57;;;;;;;3.55;1.30;;;;;;;;;;5522329;25;20037;-58
2024/04/15 13:59:24;;;;;;;4.77;1.40;;;;;;;;;;5533252;25;20048;-59
2024/04/15 14:01:56;;;;;;;5.80;1.70;;;;;;;;;;5526121;25;20030;-59
2024/04/15 14:04:23;;;;;;;8.45;2.10;;;;;;;;;;5532702;25;20366;-58
2024/04/15 14:06:51;;;;;;;5.00;1.30;;;;;;;;;;5528049;25;20031;-59
2024/04/15 14:09:19;;;;;;;5.03;1.00;;;;;;;;;;5532970;25;20041;-58
2024/04/15 14:11:48;;;;;;;3.85;1.20;;;;;;;;;;5534397;25;20033;-59
2024/04/15 14:14:16;;;;;;;4.73;1.47;;;;;;;;;;5531042;25;20037;-58
2024/04/15 14:16:45;;;;;;;6.15;1.70;;;;;;;;;;5525028;25;20041;-59
2024/04/15 14:19:14;;;;;;;11.85;1.30;;;;;;;;;;5524580;25;20029;-58
2024/04/15 14:21:43;;;;;;;5.38;1.20;;;;;;;;;;5547465;25;20042;-59
2024/04/15 14:24:09;;;;;;;5.05;1.30;;;;;;;;;;5517996;25;20037;-59
2024/04/15 14:26:39;;;;;;;3.85;1.30;;;;;;;;;;5513548;25;20034;-59
2024/04/15 14:29:05;;;;;;;3.75;1.17;;;;;;;;;;5518229;25;20411;-60
2024/04/15 14:31:34;;;;;;;4.60;1.20;;;;;;;;;;5522471;25;20392;-59
2024/04/15 14:34:00;;;;;;;3.00;1.30;;;;;;;;;;5524700;25;20075;-58
2024/04/15 14:36:32;;;;;;;2.85;1.10;;;;;;;;;;5535606;25;20890;-58
2024/04/15 14:38:58;;;;;;;18.40;1.30;;;;;;;;;;5527702;25;20037;-58
2024/04/15 14:41:27;;;;;;;8.23;1.52;;;;;;;;;;5538421;25;20087;-59
2024/04/15 14:43:53;;;;;;;5.05;1.42;;;;;;;;;;5555406;25;20024;-61